sensor_id;sensor_type;location;lat;lon;timestamp;P1;durP1;ratioP1;P2;durP2;ratioP2
20928;SDS011;21895;47.072;15.132;2022-11-20T00:01:20;20.03;;;7.63;;
20928;SDS011;21895;47.072;15.132;2022-11-20T00:03:54;17.77;;;7.63;;
20928;SDS011;21895;47.072;15.132;2022-11-20T00:06:23;19.03;;;7.60;;
20928;SDS011;21895;47.072;15.132;2022-11-20T00:08:51;16.43;;;7.33;;
20928;SDS011;21895;47.072;15.132;2022-11-20T00:11:21;13.77;;;6.60;;
20928;SDS011;21895;47.072;15.132;2022-11-20T00:13:52;16.90;;;7.33;;
20928;SDS011;21895;47.072;15.132;2022-11-20T00:16:23;19.63;;;8.47;;
20928;SDS011;21895;47.072;15.132;2022-11-20T00:18:51;17.67;;;7.73;;
20928;SDS011;21895;47.072;15.132;2022-11-20T00:21:20;16.33;;;7.70;;
20928;SDS011;21895;47.072;15.132;2022-11-20T00:23:50;19.27;;;7.93;;
20928;SDS011;21895;47.072;15.132;2022-11-20T00:26:20;21.17;;;8.77;;
20928;SDS011;21895;47.072;15.132;2022-11-20T00:28:50;21.67;;;7.60;;
20928;SDS011;21895;47.072;15.132;2022-11-20T00:31:19;20.37;;;8.40;;
20928;SDS011;21895;47.072;15.132;2022-11-20T00:33:46;18.23;;;7.73;;
20928;SDS011;21895;47.072;15.132;2022-11-20T00:36:17;24.33;;;8.70;;
20928;SDS011;21895;47.072;15.132;2022-11-20T00:38:52;24.17;;;8.50;;
20928;SDS011;21895;47.072;15.132;2022-11-20T00:41:24;20.53;;;8.87;;
20928;SDS011;21895;47.072;15.132;2022-11-20T00:43:52;21.43;;;9.13;;
20928;SDS011;21895;47.072;15.132;2022-11-20T00:46:21;21.40;;;8.50;;
20928;SDS011;21895;47.072;15.132;2022-11-20T00:48:51;24.73;;;9.53;;
20928;SDS011;21895;47.072;15.132;2022-11-20T00:51:18;27.23;;;10.37;;
20928;SDS011;21895;47.072;15.132;2022-11-20T00:53:47;25.33;;;10.17;;
20928;SDS011;21895;47.072;15.132;2022-11-20T00:56:15;24.93;;;9.83;;
20928;SDS011;21895;47.072;15.132;2022-11-20T00:58:45;26.63;;;10.00;;
20928;SDS011;21895;47.072;15.132;2022-11-20T01:01:16;25.37;;;9.27;;
20928;SDS011;21895;47.072;15.132;2022-11-20T01:03:52;22.17;;;8.33;;
20928;SDS011;21895;47.072;15.132;2022-11-20T01:06:27;18.80;;;8.00;;
20928;SDS011;21895;47.072;15.132;2022-11-20T01:09:01;21.80;;;8.37;;
20928;SDS011;21895;47.072;15.132;2022-11-20T01:11:36;19.30;;;7.50;;
20928;SDS011;21895;47.072;15.132;2022-11-20T01:14:06;20.00;;;8.33;;
20928;SDS011;21895;47.072;15.132;2022-11-20T01:16:42;18.43;;;7.80;;
20928;SDS011;21895;47.072;15.132;2022-11-20T01:19:13;17.13;;;7.57;;
20928;SDS011;21895;47.072;15.132;2022-11-20T01:21:47;24.10;;;8.77;;
20928;SDS011;21895;47.072;15.132;2022-11-20T01:24:18;18.40;;;8.13;;
20928;SDS011;21895;47.072;15.132;2022-11-20T01:26:47;18.57;;;7.73;;
20928;SDS011;21895;47.072;15.132;2022-11-20T01:29:17;18.90;;;8.17;;
20928;SDS011;21895;47.072;15.132;2022-11-20T01:31:47;19.93;;;8.03;;
20928;SDS011;21895;47.072;15.132;2022-11-20T01:34:15;19.60;;;7.70;;
20928;SDS011;21895;47.072;15.132;2022-11-20T01:36:45;21.50;;;8.47;;
20928;SDS011;21895;47.072;15.132;2022-11-20T01:39:16;23.30;;;8.43;;
20928;SDS011;21895;47.072;15.132;2022-11-20T01:41:50;24.77;;;9.07;;
20928;SDS011;21895;47.072;15.132;2022-11-20T01:44:43;25.00;;;9.27;;
20928;SDS011;21895;47.072;15.132;2022-11-20T01:47:40;19.20;;;8.33;;
20928;SDS011;21895;47.072;15.132;2022-11-20T01:50:14;20.70;;;8.73;;
20928;SDS011;21895;47.072;15.132;2022-11-20T01:52:58;20.60;;;8.50;;
20928;SDS011;21895;47.072;15.132;2022-11-20T01:55:39;24.77;;;9.10;;
20928;SDS011;21895;47.072;15.132;2022-11-20T01:58:13;19.87;;;8.70;;
20928;SDS011;21895;47.072;15.132;2022-11-20T02:00:42;23.20;;;9.17;;
20928;SDS011;21895;47.072;15.132;2022-11-20T02:03:09;23.67;;;8.77;;
20928;SDS011;21895;47.072;15.132;2022-11-20T02:09:42;18.53;;;7.40;;
20928;SDS011;21895;47.072;15.132;2022-11-20T02:12:09;22.53;;;8.47;;
20928;SDS011;21895;47.072;15.132;2022-11-20T02:16:12;20.07;;;8.03;;
20928;SDS011;21895;47.072;15.132;2022-11-20T02:18:59;22.10;;;7.50;;
20928;SDS011;21895;47.072;15.132;2022-11-20T02:21:40;19.10;;;8.30;;
20928;SDS011;21895;47.072;15.132;2022-11-20T02:27:22;17.17;;;6.70;;
20928;SDS011;21895;47.072;15.132;2022-11-20T02:29:56;21.93;;;7.70;;
20928;SDS011;21895;47.072;15.132;2022-11-20T02:32:30;18.27;;;7.63;;
20928;SDS011;21895;47.072;15.132;2022-11-20T02:35:10;17.47;;;7.60;;
20928;SDS011;21895;47.072;15.132;2022-11-20T02:38:12;18.07;;;7.23;;
20928;SDS011;21895;47.072;15.132;2022-11-20T02:40:39;17.93;;;7.30;;
20928;SDS011;21895;47.072;15.132;2022-11-20T02:43:06;14.13;;;6.80;;
20928;SDS011;21895;47.072;15.132;2022-11-20T02:45:33;16.17;;;6.77;;
20928;SDS011;21895;47.072;15.132;2022-11-20T02:48:00;22.50;;;8.40;;
20928;SDS011;21895;47.072;15.132;2022-11-20T02:50:26;20.03;;;8.67;;
20928;SDS011;21895;47.072;15.132;2022-11-20T02:52:53;19.93;;;8.07;;
20928;SDS011;21895;47.072;15.132;2022-11-20T02:55:19;19.80;;;8.83;;
20928;SDS011;21895;47.072;15.132;2022-11-20T02:57:46;20.57;;;7.87;;
20928;SDS011;21895;47.072;15.132;2022-11-20T03:00:13;23.60;;;8.33;;
20928;SDS011;21895;47.072;15.132;2022-11-20T03:02:40;23.33;;;7.90;;
20928;SDS011;21895;47.072;15.132;2022-11-20T03:05:06;18.60;;;7.80;;
20928;SDS011;21895;47.072;15.132;2022-11-20T03:07:33;18.70;;;7.67;;
20928;SDS011;21895;47.072;15.132;2022-11-20T03:10:00;16.43;;;8.40;;
20928;SDS011;21895;47.072;15.132;2022-11-20T03:12:26;19.30;;;7.60;;
20928;SDS011;21895;47.072;15.132;2022-11-20T03:14:53;21.87;;;8.00;;
20928;SDS011;21895;47.072;15.132;2022-11-20T03:17:19;20.20;;;8.93;;
20928;SDS011;21895;47.072;15.132;2022-11-20T03:19:46;25.10;;;8.83;;
20928;SDS011;21895;47.072;15.132;2022-11-20T03:22:12;21.37;;;9.10;;
20928;SDS011;21895;47.072;15.132;2022-11-20T03:24:39;25.67;;;9.70;;
20928;SDS011;21895;47.072;15.132;2022-11-20T03:27:05;27.73;;;10.10;;
20928;SDS011;21895;47.072;15.132;2022-11-20T03:29:32;21.87;;;8.77;;
20928;SDS011;21895;47.072;15.132;2022-11-20T03:31:58;26.53;;;9.80;;
20928;SDS011;21895;47.072;15.132;2022-11-20T03:34:25;25.67;;;9.80;;
20928;SDS011;21895;47.072;15.132;2022-11-20T03:36:51;32.97;;;10.70;;
20928;SDS011;21895;47.072;15.132;2022-11-20T03:39:17;29.43;;;11.27;;
20928;SDS011;21895;47.072;15.132;2022-11-20T03:41:45;31.50;;;11.43;;
20928;SDS011;21895;47.072;15.132;2022-11-20T03:44:11;32.10;;;11.57;;
20928;SDS011;21895;47.072;15.132;2022-11-20T03:46:38;27.77;;;10.73;;
20928;SDS011;21895;47.072;15.132;2022-11-20T03:49:04;28.60;;;10.30;;
20928;SDS011;21895;47.072;15.132;2022-11-20T03:51:32;28.13;;;10.83;;
20928;SDS011;21895;47.072;15.132;2022-11-20T03:54:03;29.83;;;10.50;;
20928;SDS011;21895;47.072;15.132;2022-11-20T03:56:34;29.53;;;11.27;;
20928;SDS011;21895;47.072;15.132;2022-11-20T03:59:04;30.63;;;11.60;;
20928;SDS011;21895;47.072;15.132;2022-11-20T04:01:32;27.33;;;11.67;;
20928;SDS011;21895;47.072;15.132;2022-11-20T04:04:02;24.73;;;10.57;;
20928;SDS011;21895;47.072;15.132;2022-11-20T04:06:32;29.10;;;10.63;;
20928;SDS011;21895;47.072;15.132;2022-11-20T04:09:03;32.87;;;11.07;;
20928;SDS011;21895;47.072;15.132;2022-11-20T04:11:31;29.10;;;10.30;;
20928;SDS011;21895;47.072;15.132;2022-11-20T04:14:00;25.63;;;9.97;;
20928;SDS011;21895;47.072;15.132;2022-11-20T04:16:32;31.97;;;11.20;;
20928;SDS011;21895;47.072;15.132;2022-11-20T04:19:02;32.83;;;11.40;;
20928;SDS011;21895;47.072;15.132;2022-11-20T04:21:31;31.70;;;10.40;;
20928;SDS011;21895;47.072;15.132;2022-11-20T04:23:58;27.40;;;10.57;;
20928;SDS011;21895;47.072;15.132;2022-11-20T04:26:25;30.37;;;11.13;;
20928;SDS011;21895;47.072;15.132;2022-11-20T04:28:54;24.67;;;9.90;;
20928;SDS011;21895;47.072;15.132;2022-11-20T04:31:22;32.33;;;10.80;;
20928;SDS011;21895;47.072;15.132;2022-11-20T04:33:52;23.23;;;9.70;;
20928;SDS011;21895;47.072;15.132;2022-11-20T04:36:23;20.77;;;7.77;;
20928;SDS011;21895;47.072;15.132;2022-11-20T04:38:52;14.47;;;6.17;;
20928;SDS011;21895;47.072;15.132;2022-11-20T04:41:23;13.37;;;6.23;;
20928;SDS011;21895;47.072;15.132;2022-11-20T04:43:53;14.57;;;6.80;;
20928;SDS011;21895;47.072;15.132;2022-11-20T04:46:25;11.80;;;5.50;;
20928;SDS011;21895;47.072;15.132;2022-11-20T04:48:53;14.23;;;5.77;;
20928;SDS011;21895;47.072;15.132;2022-11-20T04:51:19;12.67;;;5.40;;
20928;SDS011;21895;47.072;15.132;2022-11-20T04:53:46;12.63;;;6.27;;
20928;SDS011;21895;47.072;15.132;2022-11-20T04:56:12;12.23;;;5.93;;
20928;SDS011;21895;47.072;15.132;2022-11-20T04:58:40;14.33;;;6.37;;
20928;SDS011;21895;47.072;15.132;2022-11-20T05:01:09;20.60;;;7.80;;
20928;SDS011;21895;47.072;15.132;2022-11-20T05:03:47;21.03;;;8.10;;
20928;SDS011;21895;47.072;15.132;2022-11-20T05:06:16;22.60;;;9.00;;
20928;SDS011;21895;47.072;15.132;2022-11-20T05:08:45;20.70;;;8.00;;
20928;SDS011;21895;47.072;15.132;2022-11-20T05:11:14;22.73;;;8.77;;
20928;SDS011;21895;47.072;15.132;2022-11-20T05:13:43;20.20;;;7.90;;
20928;SDS011;21895;47.072;15.132;2022-11-20T05:16:11;21.40;;;8.10;;
20928;SDS011;21895;47.072;15.132;2022-11-20T05:18:41;22.57;;;8.83;;
20928;SDS011;21895;47.072;15.132;2022-11-20T05:21:09;24.90;;;9.57;;
20928;SDS011;21895;47.072;15.132;2022-11-20T05:23:37;25.47;;;10.10;;
20928;SDS011;21895;47.072;15.132;2022-11-20T05:26:05;25.03;;;10.60;;
20928;SDS011;21895;47.072;15.132;2022-11-20T05:28:33;23.90;;;10.40;;
20928;SDS011;21895;47.072;15.132;2022-11-20T05:31:06;22.23;;;9.07;;
20928;SDS011;21895;47.072;15.132;2022-11-20T05:33:35;23.53;;;9.37;;
20928;SDS011;21895;47.072;15.132;2022-11-20T05:36:05;25.43;;;8.97;;
20928;SDS011;21895;47.072;15.132;2022-11-20T05:38:32;22.67;;;9.70;;
20928;SDS011;21895;47.072;15.132;2022-11-20T05:41:06;22.77;;;8.63;;
20928;SDS011;21895;47.072;15.132;2022-11-20T05:43:36;22.90;;;9.17;;
20928;SDS011;21895;47.072;15.132;2022-11-20T05:46:05;21.60;;;9.00;;
20928;SDS011;21895;47.072;15.132;2022-11-20T05:48:34;22.50;;;8.80;;
20928;SDS011;21895;47.072;15.132;2022-11-20T05:51:03;20.30;;;8.63;;
20928;SDS011;21895;47.072;15.132;2022-11-20T05:53:32;22.23;;;8.07;;
20928;SDS011;21895;47.072;15.132;2022-11-20T05:56:06;31.00;;;8.97;;
20928;SDS011;21895;47.072;15.132;2022-11-20T05:58:37;23.43;;;10.13;;
20928;SDS011;21895;47.072;15.132;2022-11-20T06:01:12;31.00;;;11.20;;
20928;SDS011;21895;47.072;15.132;2022-11-20T06:03:42;26.00;;;10.47;;
20928;SDS011;21895;47.072;15.132;2022-11-20T06:06:13;27.67;;;10.60;;
20928;SDS011;21895;47.072;15.132;2022-11-20T06:08:41;28.93;;;9.97;;
20928;SDS011;21895;47.072;15.132;2022-11-20T06:11:08;28.17;;;10.57;;
20928;SDS011;21895;47.072;15.132;2022-11-20T06:13:37;29.80;;;10.60;;
20928;SDS011;21895;47.072;15.132;2022-11-20T06:16:08;18.63;;;8.30;;
20928;SDS011;21895;47.072;15.132;2022-11-20T06:18:35;21.50;;;8.93;;
20928;SDS011;21895;47.072;15.132;2022-11-20T06:21:10;22.43;;;8.70;;
20928;SDS011;21895;47.072;15.132;2022-11-20T06:23:41;20.27;;;8.07;;
20928;SDS011;21895;47.072;15.132;2022-11-20T06:26:12;20.03;;;8.50;;
20928;SDS011;21895;47.072;15.132;2022-11-20T06:28:41;22.83;;;8.67;;
20928;SDS011;21895;47.072;15.132;2022-11-20T06:31:09;20.43;;;8.27;;
20928;SDS011;21895;47.072;15.132;2022-11-20T06:33:39;20.47;;;8.03;;
20928;SDS011;21895;47.072;15.132;2022-11-20T06:36:06;19.07;;;7.53;;
20928;SDS011;21895;47.072;15.132;2022-11-20T06:38:36;22.37;;;8.00;;
20928;SDS011;21895;47.072;15.132;2022-11-20T06:41:04;20.50;;;8.13;;
20928;SDS011;21895;47.072;15.132;2022-11-20T06:43:38;19.97;;;7.93;;
20928;SDS011;21895;47.072;15.132;2022-11-20T06:46:04;18.40;;;7.67;;
20928;SDS011;21895;47.072;15.132;2022-11-20T06:48:31;18.37;;;8.27;;
20928;SDS011;21895;47.072;15.132;2022-11-20T06:50:58;18.67;;;7.93;;
20928;SDS011;21895;47.072;15.132;2022-11-20T06:53:25;17.03;;;7.90;;
20928;SDS011;21895;47.072;15.132;2022-11-20T06:55:51;18.50;;;7.97;;
20928;SDS011;21895;47.072;15.132;2022-11-20T06:58:22;22.87;;;9.57;;
20928;SDS011;21895;47.072;15.132;2022-11-20T07:00:48;33.10;;;11.53;;
20928;SDS011;21895;47.072;15.132;2022-11-20T07:03:15;31.03;;;10.80;;
20928;SDS011;21895;47.072;15.132;2022-11-20T07:05:41;38.87;;;12.47;;
20928;SDS011;21895;47.072;15.132;2022-11-20T07:08:08;33.23;;;12.57;;
20928;SDS011;21895;47.072;15.132;2022-11-20T07:10:34;28.53;;;11.47;;
20928;SDS011;21895;47.072;15.132;2022-11-20T07:13:01;29.33;;;10.93;;
20928;SDS011;21895;47.072;15.132;2022-11-20T07:15:28;25.63;;;10.80;;
20928;SDS011;21895;47.072;15.132;2022-11-20T07:17:55;22.43;;;9.17;;
20928;SDS011;21895;47.072;15.132;2022-11-20T07:20:24;24.83;;;10.27;;
20928;SDS011;21895;47.072;15.132;2022-11-20T07:22:57;25.97;;;10.60;;
20928;SDS011;21895;47.072;15.132;2022-11-20T07:25:24;28.40;;;10.67;;
20928;SDS011;21895;47.072;15.132;2022-11-20T07:27:56;29.23;;;10.67;;
20928;SDS011;21895;47.072;15.132;2022-11-20T07:30:27;26.83;;;11.03;;
20928;SDS011;21895;47.072;15.132;2022-11-20T07:32:54;31.37;;;11.73;;
20928;SDS011;21895;47.072;15.132;2022-11-20T07:35:22;28.87;;;10.97;;
20928;SDS011;21895;47.072;15.132;2022-11-20T07:37:49;28.90;;;10.83;;
20928;SDS011;21895;47.072;15.132;2022-11-20T07:40:16;31.30;;;12.17;;
20928;SDS011;21895;47.072;15.132;2022-11-20T07:42:47;29.17;;;12.13;;
20928;SDS011;21895;47.072;15.132;2022-11-20T07:45:18;25.97;;;11.00;;
20928;SDS011;21895;47.072;15.132;2022-11-20T07:47:47;25.20;;;10.50;;
20928;SDS011;21895;47.072;15.132;2022-11-20T07:50:14;22.37;;;10.10;;
20928;SDS011;21895;47.072;15.132;2022-11-20T07:52:42;24.83;;;10.73;;
20928;SDS011;21895;47.072;15.132;2022-11-20T07:55:09;28.10;;;12.00;;
20928;SDS011;21895;47.072;15.132;2022-11-20T07:57:36;31.80;;;13.33;;
20928;SDS011;21895;47.072;15.132;2022-11-20T08:00:03;34.20;;;13.53;;
20928;SDS011;21895;47.072;15.132;2022-11-20T08:02:36;30.70;;;13.50;;
20928;SDS011;21895;47.072;15.132;2022-11-20T08:05:07;32.07;;;13.90;;
20928;SDS011;21895;47.072;15.132;2022-11-20T08:07:38;36.97;;;14.03;;
20928;SDS011;21895;47.072;15.132;2022-11-20T08:10:07;34.83;;;13.77;;
20928;SDS011;21895;47.072;15.132;2022-11-20T08:12:35;32.27;;;13.27;;
20928;SDS011;21895;47.072;15.132;2022-11-20T08:15:27;27.93;;;12.90;;
20928;SDS011;21895;47.072;15.132;2022-11-20T08:18:04;30.17;;;13.40;;
20928;SDS011;21895;47.072;15.132;2022-11-20T08:20:56;30.53;;;11.87;;
20928;SDS011;21895;47.072;15.132;2022-11-20T08:23:22;24.63;;;11.80;;
20928;SDS011;21895;47.072;15.132;2022-11-20T08:25:49;26.30;;;11.90;;
20928;SDS011;21895;47.072;15.132;2022-11-20T08:28:16;25.47;;;12.17;;
20928;SDS011;21895;47.072;15.132;2022-11-20T08:30:47;31.43;;;12.10;;
20928;SDS011;21895;47.072;15.132;2022-11-20T08:33:15;27.67;;;12.60;;
20928;SDS011;21895;47.072;15.132;2022-11-20T08:35:44;28.73;;;12.13;;
20928;SDS011;21895;47.072;15.132;2022-11-20T08:38:10;26.93;;;11.23;;
20928;SDS011;21895;47.072;15.132;2022-11-20T08:40:37;27.73;;;12.73;;
20928;SDS011;21895;47.072;15.132;2022-11-20T08:43:03;28.30;;;12.17;;
20928;SDS011;21895;47.072;15.132;2022-11-20T08:45:30;30.77;;;12.07;;
20928;SDS011;21895;47.072;15.132;2022-11-20T08:48:00;33.10;;;12.37;;
20928;SDS011;21895;47.072;15.132;2022-11-20T08:50:28;29.30;;;12.57;;
20928;SDS011;21895;47.072;15.132;2022-11-20T08:53:01;33.40;;;13.57;;
20928;SDS011;21895;47.072;15.132;2022-11-20T08:55:31;30.77;;;13.57;;
20928;SDS011;21895;47.072;15.132;2022-11-20T08:57:58;30.80;;;14.03;;
20928;SDS011;21895;47.072;15.132;2022-11-20T09:00:29;31.60;;;15.20;;
20928;SDS011;21895;47.072;15.132;2022-11-20T09:02:55;33.80;;;15.53;;
20928;SDS011;21895;47.072;15.132;2022-11-20T09:05:22;33.37;;;13.93;;
20928;SDS011;21895;47.072;15.132;2022-11-20T09:07:49;33.97;;;15.17;;
20928;SDS011;21895;47.072;15.132;2022-11-20T09:10:15;31.43;;;14.47;;
20928;SDS011;21895;47.072;15.132;2022-11-20T09:12:49;37.63;;;15.07;;
20928;SDS011;21895;47.072;15.132;2022-11-20T09:15:17;36.27;;;15.17;;
20928;SDS011;21895;47.072;15.132;2022-11-20T09:17:53;39.97;;;17.00;;
20928;SDS011;21895;47.072;15.132;2022-11-20T09:20:21;36.63;;;15.07;;
20928;SDS011;21895;47.072;15.132;2022-11-20T09:22:48;32.77;;;14.33;;
20928;SDS011;21895;47.072;15.132;2022-11-20T09:25:15;29.30;;;13.80;;
20928;SDS011;21895;47.072;15.132;2022-11-20T09:27:42;28.70;;;13.17;;
20928;SDS011;21895;47.072;15.132;2022-11-20T09:30:09;26.17;;;13.10;;
20928;SDS011;21895;47.072;15.132;2022-11-20T09:32:40;25.27;;;12.13;;
20928;SDS011;21895;47.072;15.132;2022-11-20T09:35:08;28.67;;;12.97;;
20928;SDS011;21895;47.072;15.132;2022-11-20T09:37:35;26.10;;;12.60;;
20928;SDS011;21895;47.072;15.132;2022-11-20T09:40:02;30.10;;;13.07;;
20928;SDS011;21895;47.072;15.132;2022-11-20T09:46:54;28.03;;;11.70;;
20928;SDS011;21895;47.072;15.132;2022-11-20T09:49:56;21.37;;;9.40;;
20928;SDS011;21895;47.072;15.132;2022-11-20T09:53:04;33.10;;;12.90;;
20928;SDS011;21895;47.072;15.132;2022-11-20T09:57:56;26.20;;;12.23;;
20928;SDS011;21895;47.072;15.132;2022-11-20T10:00:25;28.63;;;11.97;;
20928;SDS011;21895;47.072;15.132;2022-11-20T10:03:01;28.23;;;13.27;;
20928;SDS011;21895;47.072;15.132;2022-11-20T10:06:43;22.13;;;9.47;;
20928;SDS011;21895;47.072;15.132;2022-11-20T10:09:56;18.90;;;10.30;;
20928;SDS011;21895;47.072;15.132;2022-11-20T10:12:47;24.97;;;9.90;;
20928;SDS011;21895;47.072;15.132;2022-11-20T10:18:43;14.20;;;6.30;;
20928;SDS011;21895;47.072;15.132;2022-11-20T10:21:55;14.00;;;6.63;;
20928;SDS011;21895;47.072;15.132;2022-11-20T10:24:56;19.37;;;8.07;;
20928;SDS011;21895;47.072;15.132;2022-11-20T10:32:02;20.73;;;7.03;;
20928;SDS011;21895;47.072;15.132;2022-11-20T10:35:01;13.83;;;7.00;;
20928;SDS011;21895;47.072;15.132;2022-11-20T10:37:46;14.50;;;6.77;;
20928;SDS011;21895;47.072;15.132;2022-11-20T10:44:02;18.07;;;6.80;;
20928;SDS011;21895;47.072;15.132;2022-11-20T10:46:37;13.97;;;7.03;;
20928;SDS011;21895;47.072;15.132;2022-11-20T10:49:14;13.20;;;5.43;;
20928;SDS011;21895;47.072;15.132;2022-11-20T10:51:51;14.77;;;5.50;;
20928;SDS011;21895;47.072;15.132;2022-11-20T10:56:22;13.93;;;6.03;;
20928;SDS011;21895;47.072;15.132;2022-11-20T11:03:48;13.10;;;5.70;;
20928;SDS011;21895;47.072;15.132;2022-11-20T11:09:21;13.93;;;6.60;;
20928;SDS011;21895;47.072;15.132;2022-11-20T11:12:05;13.43;;;6.67;;
20928;SDS011;21895;47.072;15.132;2022-11-20T11:14:43;14.03;;;6.60;;
20928;SDS011;21895;47.072;15.132;2022-11-20T11:17:31;12.33;;;6.37;;
20928;SDS011;21895;47.072;15.132;2022-11-20T11:20:00;15.30;;;6.43;;
20928;SDS011;21895;47.072;15.132;2022-11-20T11:23:01;13.23;;;6.87;;
20928;SDS011;21895;47.072;15.132;2022-11-20T11:25:32;14.83;;;7.33;;
20928;SDS011;21895;47.072;15.132;2022-11-20T11:28:24;15.17;;;7.40;;
20928;SDS011;21895;47.072;15.132;2022-11-20T11:30:53;15.20;;;7.87;;
20928;SDS011;21895;47.072;15.132;2022-11-20T11:33:24;14.87;;;7.90;;
20928;SDS011;21895;47.072;15.132;2022-11-20T11:35:56;15.60;;;8.40;;
20928;SDS011;21895;47.072;15.132;2022-11-20T11:38:29;14.57;;;7.23;;
20928;SDS011;21895;47.072;15.132;2022-11-20T11:41:12;14.90;;;7.80;;
20928;SDS011;21895;47.072;15.132;2022-11-20T11:43:54;14.57;;;7.97;;
20928;SDS011;21895;47.072;15.132;2022-11-20T11:46:59;13.53;;;6.77;;
20928;SDS011;21895;47.072;15.132;2022-11-20T11:49:27;16.20;;;6.60;;
20928;SDS011;21895;47.072;15.132;2022-11-20T11:52:16;12.10;;;6.10;;
20928;SDS011;21895;47.072;15.132;2022-11-20T11:54:53;12.60;;;5.97;;
20928;SDS011;21895;47.072;15.132;2022-11-20T12:02:01;6.13;;;4.17;;
20928;SDS011;21895;47.072;15.132;2022-11-20T12:05:02;5.97;;;3.47;;
20928;SDS011;21895;47.072;15.132;2022-11-20T12:07:59;7.20;;;3.90;;
20928;SDS011;21895;47.072;15.132;2022-11-20T12:10:56;7.33;;;3.80;;
20928;SDS011;21895;47.072;15.132;2022-11-20T12:17:02;7.43;;;4.17;;
20928;SDS011;21895;47.072;15.132;2022-11-20T12:19:30;7.37;;;4.07;;
20928;SDS011;21895;47.072;15.132;2022-11-20T12:22:02;8.23;;;4.00;;
20928;SDS011;21895;47.072;15.132;2022-11-20T12:25:07;7.53;;;4.43;;
20928;SDS011;21895;47.072;15.132;2022-11-20T12:28:34;5.70;;;3.30;;
20928;SDS011;21895;47.072;15.132;2022-11-20T12:33:08;7.47;;;4.00;;
20928;SDS011;21895;47.072;15.132;2022-11-20T12:36:17;7.97;;;4.43;;
20928;SDS011;21895;47.072;15.132;2022-11-20T12:39:39;8.70;;;4.70;;
20928;SDS011;21895;47.072;15.132;2022-11-20T12:52:20;10.60;;;5.67;;
20928;SDS011;21895;47.072;15.132;2022-11-20T13:01:24;8.00;;;4.77;;
20928;SDS011;21895;47.072;15.132;2022-11-20T13:08:56;9.47;;;4.60;;
20928;SDS011;21895;47.072;15.132;2022-11-20T13:11:27;8.77;;;4.70;;
20928;SDS011;21895;47.072;15.132;2022-11-20T13:14:37;8.27;;;5.03;;
20928;SDS011;21895;47.072;15.132;2022-11-20T13:18:02;7.70;;;3.90;;
20928;SDS011;21895;47.072;15.132;2022-11-20T13:20:34;8.03;;;4.63;;
20928;SDS011;21895;47.072;15.132;2022-11-20T13:23:06;6.63;;;4.30;;
20928;SDS011;21895;47.072;15.132;2022-11-20T13:25:36;5.83;;;3.77;;
20928;SDS011;21895;47.072;15.132;2022-11-20T13:28:27;6.83;;;4.20;;
20928;SDS011;21895;47.072;15.132;2022-11-20T13:30:55;10.23;;;5.97;;
20928;SDS011;21895;47.072;15.132;2022-11-20T13:33:31;11.13;;;6.20;;
20928;SDS011;21895;47.072;15.132;2022-11-20T13:36:04;11.90;;;6.47;;
20928;SDS011;21895;47.072;15.132;2022-11-20T13:38:47;11.37;;;6.47;;
20928;SDS011;21895;47.072;15.132;2022-11-20T13:44:29;10.00;;;5.90;;
20928;SDS011;21895;47.072;15.132;2022-11-20T13:47:17;14.07;;;6.27;;
20928;SDS011;21895;47.072;15.132;2022-11-20T13:49:51;10.63;;;5.83;;
20928;SDS011;21895;47.072;15.132;2022-11-20T13:56:54;10.43;;;5.60;;
20928;SDS011;21895;47.072;15.132;2022-11-20T13:59:56;9.70;;;5.70;;
20928;SDS011;21895;47.072;15.132;2022-11-20T14:02:52;15.60;;;5.83;;
20928;SDS011;21895;47.072;15.132;2022-11-20T14:08:32;12.83;;;5.90;;
20928;SDS011;21895;47.072;15.132;2022-11-20T14:11:21;14.50;;;7.27;;
20928;SDS011;21895;47.072;15.132;2022-11-20T14:14:02;13.23;;;6.00;;
20928;SDS011;21895;47.072;15.132;2022-11-20T14:16:44;11.97;;;6.60;;
20928;SDS011;21895;47.072;15.132;2022-11-20T14:19:25;13.13;;;7.27;;
20928;SDS011;21895;47.072;15.132;2022-11-20T14:22:09;12.07;;;6.67;;
20928;SDS011;21895;47.072;15.132;2022-11-20T14:24:44;15.37;;;7.40;;
20928;SDS011;21895;47.072;15.132;2022-11-20T14:27:16;13.47;;;7.10;;
20928;SDS011;21895;47.072;15.132;2022-11-20T14:29:46;14.73;;;7.57;;
20928;SDS011;21895;47.072;15.132;2022-11-20T14:32:17;14.63;;;7.93;;
20928;SDS011;21895;47.072;15.132;2022-11-20T14:34:48;16.30;;;8.10;;
20928;SDS011;21895;47.072;15.132;2022-11-20T14:37:25;18.70;;;8.20;;
20928;SDS011;21895;47.072;15.132;2022-11-20T14:39:57;19.90;;;8.60;;
20928;SDS011;21895;47.072;15.132;2022-11-20T14:42:25;17.23;;;9.10;;
20928;SDS011;21895;47.072;15.132;2022-11-20T14:44:57;14.30;;;7.60;;
20928;SDS011;21895;47.072;15.132;2022-11-20T14:47:26;14.90;;;7.20;;
20928;SDS011;21895;47.072;15.132;2022-11-20T14:49:56;14.63;;;6.60;;
20928;SDS011;21895;47.072;15.132;2022-11-20T14:52:25;17.47;;;6.93;;
20928;SDS011;21895;47.072;15.132;2022-11-20T14:54:54;14.90;;;7.13;;
20928;SDS011;21895;47.072;15.132;2022-11-20T14:57:30;14.57;;;7.30;;
20928;SDS011;21895;47.072;15.132;2022-11-20T15:03:00;16.37;;;7.40;;
20928;SDS011;21895;47.072;15.132;2022-11-20T15:05:46;31.87;;;7.67;;
20928;SDS011;21895;47.072;15.132;2022-11-20T15:08:16;20.03;;;7.27;;
20928;SDS011;21895;47.072;15.132;2022-11-20T15:10:46;14.27;;;7.03;;
20928;SDS011;21895;47.072;15.132;2022-11-20T15:13:17;12.43;;;5.87;;
20928;SDS011;21895;47.072;15.132;2022-11-20T15:16:19;12.90;;;5.97;;
20928;SDS011;21895;47.072;15.132;2022-11-20T15:18:49;12.70;;;6.47;;
20928;SDS011;21895;47.072;15.132;2022-11-20T15:21:17;16.33;;;6.90;;
20928;SDS011;21895;47.072;15.132;2022-11-20T15:23:46;12.67;;;6.73;;
20928;SDS011;21895;47.072;15.132;2022-11-20T15:26:14;20.60;;;7.33;;
20928;SDS011;21895;47.072;15.132;2022-11-20T15:28:48;18.40;;;7.77;;
20928;SDS011;21895;47.072;15.132;2022-11-20T15:31:16;21.57;;;9.33;;
20928;SDS011;21895;47.072;15.132;2022-11-20T15:33:47;17.87;;;8.37;;
20928;SDS011;21895;47.072;15.132;2022-11-20T15:36:14;16.90;;;7.03;;
20928;SDS011;21895;47.072;15.132;2022-11-20T15:38:41;12.73;;;6.10;;
20928;SDS011;21895;47.072;15.132;2022-11-20T15:41:07;15.27;;;6.70;;
20928;SDS011;21895;47.072;15.132;2022-11-20T15:43:35;13.70;;;6.80;;
20928;SDS011;21895;47.072;15.132;2022-11-20T15:46:03;13.70;;;6.80;;
20928;SDS011;21895;47.072;15.132;2022-11-20T15:48:37;37.93;;;13.73;;
20928;SDS011;21895;47.072;15.132;2022-11-20T15:51:35;37.10;;;13.00;;
20928;SDS011;21895;47.072;15.132;2022-11-20T15:54:11;18.13;;;7.93;;
20928;SDS011;21895;47.072;15.132;2022-11-20T15:56:40;16.73;;;7.57;;
20928;SDS011;21895;47.072;15.132;2022-11-20T15:59:07;20.47;;;7.67;;
20928;SDS011;21895;47.072;15.132;2022-11-20T16:01:33;14.47;;;7.20;;
20928;SDS011;21895;47.072;15.132;2022-11-20T16:04:00;22.17;;;8.30;;
20928;SDS011;21895;47.072;15.132;2022-11-20T16:06:27;14.97;;;7.90;;
20928;SDS011;21895;47.072;15.132;2022-11-20T16:08:53;16.17;;;7.93;;
20928;SDS011;21895;47.072;15.132;2022-11-20T16:11:20;18.10;;;8.87;;
20928;SDS011;21895;47.072;15.132;2022-11-20T16:13:46;17.10;;;7.80;;
20928;SDS011;21895;47.072;15.132;2022-11-20T16:16:33;15.80;;;7.63;;